sensor_id;sensor_type;location;lat;lon;timestamp;P1;durP1;ratioP1;P2;durP2;ratioP2
59766;SDS011;46248;58.364;25.582;2024-02-28T00:02:26;7.60;;;3.72;;
59766;SDS011;46248;58.364;25.582;2024-02-28T00:05:51;6.55;;;3.13;;
59766;SDS011;46248;58.364;25.582;2024-02-28T00:09:13;6.53;;;3.50;;
59766;SDS011;46248;58.364;25.582;2024-02-28T00:12:36;6.88;;;3.72;;
59766;SDS011;46248;58.364;25.582;2024-02-28T00:15:58;5.60;;;3.03;;
59766;SDS011;46248;58.364;25.582;2024-02-28T00:19:20;6.78;;;3.38;;
59766;SDS011;46248;58.364;25.582;2024-02-28T00:22:44;6.25;;;3.20;;
59766;SDS011;46248;58.364;25.582;2024-02-28T00:26:05;10.27;;;4.00;;
59766;SDS011;46248;58.364;25.582;2024-02-28T00:29:27;6.63;;;2.90;;
59766;SDS011;46248;58.364;25.582;2024-02-28T00:32:49;8.13;;;3.47;;
59766;SDS011;46248;58.364;25.582;2024-02-28T00:36:11;9.68;;;3.80;;
59766;SDS011;46248;58.364;25.582;2024-02-28T00:39:34;8.15;;;3.28;;
59766;SDS011;46248;58.364;25.582;2024-02-28T00:42:56;11.10;;;3.13;;
59766;SDS011;46248;58.364;25.582;2024-02-28T00:46:18;9.07;;;3.92;;
59766;SDS011;46248;58.364;25.582;2024-02-28T00:49:40;10.80;;;3.53;;
59766;SDS011;46248;58.364;25.582;2024-02-28T00:53:02;8.45;;;2.90;;
59766;SDS011;46248;58.364;25.582;2024-02-28T00:56:25;9.40;;;3.05;;
59766;SDS011;46248;58.364;25.582;2024-02-28T00:59:47;6.28;;;2.70;;
59766;SDS011;46248;58.364;25.582;2024-02-28T01:03:09;7.53;;;2.63;;
59766;SDS011;46248;58.364;25.582;2024-02-28T01:06:34;15.07;;;3.03;;
59766;SDS011;46248;58.364;25.582;2024-02-28T01:09:56;6.85;;;2.72;;
59766;SDS011;46248;58.364;25.582;2024-02-28T01:13:19;10.30;;;3.22;;
59766;SDS011;46248;58.364;25.582;2024-02-28T01:16:41;7.22;;;3.45;;
59766;SDS011;46248;58.364;25.582;2024-02-28T01:20:03;6.85;;;2.92;;
59766;SDS011;46248;58.364;25.582;2024-02-28T01:23:25;21.48;;;4.40;;
59766;SDS011;46248;58.364;25.582;2024-02-28T01:26:47;9.32;;;3.40;;
59766;SDS011;46248;58.364;25.582;2024-02-28T01:30:11;13.75;;;3.58;;
59766;SDS011;46248;58.364;25.582;2024-02-28T01:33:33;6.68;;;3.25;;
59766;SDS011;46248;58.364;25.582;2024-02-28T01:36:55;7.30;;;3.10;;
59766;SDS011;46248;58.364;25.582;2024-02-28T01:40:17;7.07;;;2.83;;
59766;SDS011;46248;58.364;25.582;2024-02-28T01:43:39;9.35;;;3.03;;
59766;SDS011;46248;58.364;25.582;2024-02-28T01:47:02;7.88;;;3.15;;
59766;SDS011;46248;58.364;25.582;2024-02-28T01:50:24;5.13;;;2.97;;
59766;SDS011;46248;58.364;25.582;2024-02-28T01:53:46;22.70;;;4.55;;
59766;SDS011;46248;58.364;25.582;2024-02-28T01:57:09;11.38;;;3.22;;
59766;SDS011;46248;58.364;25.582;2024-02-28T02:00:32;4.65;;;2.53;;
59766;SDS011;46248;58.364;25.582;2024-02-28T02:03:56;5.10;;;3.10;;
59766;SDS011;46248;58.364;25.582;2024-02-28T02:07:18;5.63;;;2.80;;
59766;SDS011;46248;58.364;25.582;2024-02-28T02:10:41;9.50;;;3.38;;
59766;SDS011;46248;58.364;25.582;2024-02-28T02:14:03;5.68;;;3.40;;
59766;SDS011;46248;58.364;25.582;2024-02-28T02:17:25;5.07;;;2.78;;
59766;SDS011;46248;58.364;25.582;2024-02-28T02:20:49;5.20;;;3.30;;
59766;SDS011;46248;58.364;25.582;2024-02-28T02:24:15;9.23;;;3.47;;
59766;SDS011;46248;58.364;25.582;2024-02-28T02:27:37;8.38;;;3.60;;
59766;SDS011;46248;58.364;25.582;2024-02-28T02:30:59;4.53;;;3.03;;
59766;SDS011;46248;58.364;25.582;2024-02-28T02:34:21;5.20;;;3.10;;
59766;SDS011;46248;58.364;25.582;2024-02-28T02:37:43;8.00;;;3.25;;
59766;SDS011;46248;58.364;25.582;2024-02-28T02:41:09;4.65;;;3.30;;
59766;SDS011;46248;58.364;25.582;2024-02-28T02:44:31;5.20;;;3.17;;
59766;SDS011;46248;58.364;25.582;2024-02-28T02:47:52;8.25;;;3.40;;
59766;SDS011;46248;58.364;25.582;2024-02-28T02:51:14;5.53;;;2.60;;
59766;SDS011;46248;58.364;25.582;2024-02-28T02:54:37;6.55;;;2.85;;
59766;SDS011;46248;58.364;25.582;2024-02-28T02:58:01;5.53;;;2.83;;
59766;SDS011;46248;58.364;25.582;2024-02-28T03:01:23;10.10;;;3.17;;
59766;SDS011;46248;58.364;25.582;2024-02-28T03:04:45;6.90;;;3.45;;
59766;SDS011;46248;58.364;25.582;2024-02-28T03:08:06;5.38;;;3.42;;
59766;SDS011;46248;58.364;25.582;2024-02-28T03:11:28;4.72;;;3.17;;
59766;SDS011;46248;58.364;25.582;2024-02-28T03:14:52;7.95;;;3.33;;
59766;SDS011;46248;58.364;25.582;2024-02-28T03:18:13;8.70;;;3.63;;
59766;SDS011;46248;58.364;25.582;2024-02-28T03:21:35;46.83;;;6.43;;
59766;SDS011;46248;58.364;25.582;2024-02-28T03:24:57;8.57;;;3.45;;
59766;SDS011;46248;58.364;25.582;2024-02-28T03:28:19;6.40;;;3.55;;
59766;SDS011;46248;58.364;25.582;2024-02-28T03:31:42;7.15;;;3.83;;
59766;SDS011;46248;58.364;25.582;2024-02-28T03:35:04;10.02;;;3.60;;
59766;SDS011;46248;58.364;25.582;2024-02-28T03:38:29;6.95;;;3.38;;
59766;SDS011;46248;58.364;25.582;2024-02-28T03:41:50;6.40;;;3.65;;
59766;SDS011;46248;58.364;25.582;2024-02-28T03:45:12;8.27;;;3.42;;
59766;SDS011;46248;58.364;25.582;2024-02-28T03:48:35;6.80;;;3.28;;
59766;SDS011;46248;58.364;25.582;2024-02-28T03:51:57;6.40;;;3.22;;
59766;SDS011;46248;58.364;25.582;2024-02-28T03:55:20;9.50;;;3.83;;
59766;SDS011;46248;58.364;25.582;2024-02-28T03:58:42;11.35;;;3.40;;
59766;SDS011;46248;58.364;25.582;2024-02-28T04:02:04;7.97;;;3.88;;
59766;SDS011;46248;58.364;25.582;2024-02-28T04:05:27;5.25;;;3.53;;
59766;SDS011;46248;58.364;25.582;2024-02-28T04:08:50;6.88;;;3.58;;
59766;SDS011;46248;58.364;25.582;2024-02-28T04:12:12;9.05;;;3.80;;
59766;SDS011;46248;58.364;25.582;2024-02-28T04:15:33;9.85;;;3.58;;
59766;SDS011;46248;58.364;25.582;2024-02-28T04:18:56;6.07;;;3.28;;
59766;SDS011;46248;58.364;25.582;2024-02-28T04:22:19;8.27;;;4.25;;
59766;SDS011;46248;58.364;25.582;2024-02-28T04:25:41;7.95;;;3.40;;
59766;SDS011;46248;58.364;25.582;2024-02-28T04:29:03;9.88;;;4.47;;
59766;SDS011;46248;58.364;25.582;2024-02-28T04:32:27;6.82;;;3.20;;
59766;SDS011;46248;58.364;25.582;2024-02-28T04:35:49;8.60;;;3.50;;
59766;SDS011;46248;58.364;25.582;2024-02-28T04:39:13;6.57;;;3.70;;
59766;SDS011;46248;58.364;25.582;2024-02-28T04:42:35;9.65;;;4.30;;
59766;SDS011;46248;58.364;25.582;2024-02-28T04:45:58;11.48;;;4.30;;
59766;SDS011;46248;58.364;25.582;2024-02-28T04:49:19;13.55;;;5.88;;
59766;SDS011;46248;58.364;25.582;2024-02-28T04:52:43;12.27;;;4.10;;
59766;SDS011;46248;58.364;25.582;2024-02-28T04:56:06;9.35;;;4.70;;
59766;SDS011;46248;58.364;25.582;2024-02-28T04:59:29;20.50;;;5.05;;
59766;SDS011;46248;58.364;25.582;2024-02-28T05:02:52;13.27;;;5.22;;
59766;SDS011;46248;58.364;25.582;2024-02-28T05:06:13;23.13;;;6.00;;
59766;SDS011;46248;58.364;25.582;2024-02-28T05:09:35;13.32;;;5.90;;
59766;SDS011;46248;58.364;25.582;2024-02-28T05:12:58;12.13;;;5.55;;
59766;SDS011;46248;58.364;25.582;2024-02-28T05:16:20;7.97;;;4.25;;
59766;SDS011;46248;58.364;25.582;2024-02-28T05:19:43;10.15;;;4.53;;
59766;SDS011;46248;58.364;25.582;2024-02-28T05:23:04;8.00;;;3.88;;
59766;SDS011;46248;58.364;25.582;2024-02-28T05:26:26;24.10;;;6.50;;
59766;SDS011;46248;58.364;25.582;2024-02-28T05:29:50;12.38;;;5.60;;
59766;SDS011;46248;58.364;25.582;2024-02-28T05:33:12;9.52;;;4.80;;
59766;SDS011;46248;58.364;25.582;2024-02-28T05:36:33;26.33;;;5.60;;
59766;SDS011;46248;58.364;25.582;2024-02-28T05:39:56;17.35;;;5.80;;
59766;SDS011;46248;58.364;25.582;2024-02-28T05:43:18;25.35;;;7.35;;
59766;SDS011;46248;58.364;25.582;2024-02-28T05:46:42;24.95;;;7.63;;
59766;SDS011;46248;58.364;25.582;2024-02-28T05:50:03;18.92;;;6.90;;
59766;SDS011;46248;58.364;25.582;2024-02-28T05:53:26;16.08;;;6.45;;
59766;SDS011;46248;58.364;25.582;2024-02-28T05:56:52;15.90;;;6.00;;
59766;SDS011;46248;58.364;25.582;2024-02-28T06:00:14;10.30;;;4.00;;
59766;SDS011;46248;58.364;25.582;2024-02-28T06:03:38;9.73;;;4.40;;
59766;SDS011;46248;58.364;25.582;2024-02-28T06:07:00;7.70;;;3.38;;
59766;SDS011;46248;58.364;25.582;2024-02-28T06:10:22;7.70;;;3.03;;
59766;SDS011;46248;58.364;25.582;2024-02-28T06:13:44;8.82;;;3.40;;
59766;SDS011;46248;58.364;25.582;2024-02-28T06:17:06;5.85;;;3.47;;
59766;SDS011;46248;58.364;25.582;2024-02-28T06:20:30;27.45;;;4.68;;
59766;SDS011;46248;58.364;25.582;2024-02-28T06:23:52;11.77;;;3.33;;
59766;SDS011;46248;58.364;25.582;2024-02-28T06:27:14;4.25;;;2.53;;
59766;SDS011;46248;58.364;25.582;2024-02-28T06:30:37;8.25;;;3.10;;
59766;SDS011;46248;58.364;25.582;2024-02-28T06:33:58;8.13;;;3.55;;
59766;SDS011;46248;58.364;25.582;2024-02-28T06:37:24;4.15;;;2.53;;
59766;SDS011;46248;58.364;25.582;2024-02-28T06:40:45;3.92;;;2.50;;
59766;SDS011;46248;58.364;25.582;2024-02-28T06:44:07;5.68;;;2.70;;
59766;SDS011;46248;58.364;25.582;2024-02-28T06:47:29;17.92;;;3.63;;
59766;SDS011;46248;58.364;25.582;2024-02-28T06:50:53;11.80;;;3.40;;
59766;SDS011;46248;58.364;25.582;2024-02-28T06:54:16;6.53;;;2.20;;
59766;SDS011;46248;58.364;25.582;2024-02-28T06:57:37;10.27;;;3.58;;
59766;SDS011;46248;58.364;25.582;2024-02-28T07:01:01;5.32;;;2.33;;
59766;SDS011;46248;58.364;25.582;2024-02-28T07:04:23;3.75;;;2.03;;
59766;SDS011;46248;58.364;25.582;2024-02-28T07:07:45;15.52;;;3.20;;
59766;SDS011;46248;58.364;25.582;2024-02-28T07:11:14;9.95;;;2.70;;
59766;SDS011;46248;58.364;25.582;2024-02-28T07:17:58;4.32;;;2.45;;
59766;SDS011;46248;58.364;25.582;2024-02-28T07:21:20;7.68;;;1.98;;
59766;SDS011;46248;58.364;25.582;2024-02-28T07:24:42;6.05;;;2.85;;
59766;SDS011;46248;58.364;25.582;2024-02-28T07:28:05;5.97;;;2.83;;
59766;SDS011;46248;58.364;25.582;2024-02-28T07:31:27;5.03;;;2.83;;
59766;SDS011;46248;58.364;25.582;2024-02-28T07:34:49;10.10;;;2.85;;
59766;SDS011;46248;58.364;25.582;2024-02-28T07:38:11;15.90;;;3.25;;
59766;SDS011;46248;58.364;25.582;2024-02-28T07:41:33;17.58;;;4.25;;
59766;SDS011;46248;58.364;25.582;2024-02-28T07:44:56;8.00;;;3.40;;
59766;SDS011;46248;58.364;25.582;2024-02-28T07:48:18;10.90;;;3.92;;
59766;SDS011;46248;58.364;25.582;2024-02-28T07:51:40;3.78;;;2.72;;
59766;SDS011;46248;58.364;25.582;2024-02-28T07:55:02;7.55;;;2.42;;
59766;SDS011;46248;58.364;25.582;2024-02-28T07:58:24;16.10;;;3.42;;
59766;SDS011;46248;58.364;25.582;2024-02-28T08:01:47;6.80;;;2.60;;
59766;SDS011;46248;58.364;25.582;2024-02-28T08:05:09;23.35;;;3.88;;
59766;SDS011;46248;58.364;25.582;2024-02-28T08:08:31;9.13;;;2.00;;
59766;SDS011;46248;58.364;25.582;2024-02-28T08:11:53;4.93;;;3.38;;
59766;SDS011;46248;58.364;25.582;2024-02-28T08:15:15;3.70;;;2.22;;
59766;SDS011;46248;58.364;25.582;2024-02-28T08:18:39;14.80;;;3.17;;
59766;SDS011;46248;58.364;25.582;2024-02-28T08:22:01;2.47;;;2.00;;
59766;SDS011;46248;58.364;25.582;2024-02-28T08:25:23;4.13;;;2.03;;
59766;SDS011;46248;58.364;25.582;2024-02-28T08:28:44;2.90;;;2.25;;
59766;SDS011;46248;58.364;25.582;2024-02-28T08:32:09;4.10;;;2.65;;
59766;SDS011;46248;58.364;25.582;2024-02-28T08:35:33;2.95;;;2.15;;
59766;SDS011;46248;58.364;25.582;2024-02-28T08:38:55;3.35;;;2.08;;
59766;SDS011;46248;58.364;25.582;2024-02-28T08:42:17;5.55;;;2.05;;
59766;SDS011;46248;58.364;25.582;2024-02-28T08:45:40;4.32;;;2.00;;
59766;SDS011;46248;58.364;25.582;2024-02-28T08:49:02;6.00;;;2.50;;
59766;SDS011;46248;58.364;25.582;2024-02-28T08:52:26;4.35;;;3.08;;
59766;SDS011;46248;58.364;25.582;2024-02-28T08:55:47;3.35;;;2.10;;
59766;SDS011;46248;58.364;25.582;2024-02-28T08:59:09;3.20;;;2.20;;
59766;SDS011;46248;58.364;25.582;2024-02-28T09:02:31;3.90;;;2.42;;
59766;SDS011;46248;58.364;25.582;2024-02-28T09:05:53;3.35;;;1.98;;
59766;SDS011;46248;58.364;25.582;2024-02-28T09:09:17;4.07;;;2.40;;
59766;SDS011;46248;58.364;25.582;2024-02-28T09:12:38;2.60;;;2.10;;
59766;SDS011;46248;58.364;25.582;2024-02-28T09:16:00;3.20;;;2.40;;
59766;SDS011;46248;58.364;25.582;2024-02-28T09:19:22;3.35;;;2.03;;
59766;SDS011;46248;58.364;25.582;2024-02-28T09:22:43;3.17;;;2.00;;
59766;SDS011;46248;58.364;25.582;2024-02-28T09:26:07;4.13;;;2.28;;
59766;SDS011;46248;58.364;25.582;2024-02-28T09:29:28;3.13;;;2.22;;
59766;SDS011;46248;58.364;25.582;2024-02-28T09:32:51;3.80;;;2.55;;
59766;SDS011;46248;58.364;25.582;2024-02-28T09:36:12;3.22;;;2.17;;
59766;SDS011;46248;58.364;25.582;2024-02-28T09:39:37;6.72;;;2.83;;
59766;SDS011;46248;58.364;25.582;2024-02-28T09:43:01;3.60;;;2.15;;
59766;SDS011;46248;58.364;25.582;2024-02-28T09:46:24;3.67;;;2.45;;
59766;SDS011;46248;58.364;25.582;2024-02-28T09:49:46;11.10;;;4.20;;
59766;SDS011;46248;58.364;25.582;2024-02-28T09:53:12;6.03;;;3.47;;
59766;SDS011;46248;58.364;25.582;2024-02-28T09:56:34;3.35;;;2.58;;
59766;SDS011;46248;58.364;25.582;2024-02-28T09:59:58;3.72;;;2.50;;
59766;SDS011;46248;58.364;25.582;2024-02-28T10:03:21;2.83;;;2.45;;
59766;SDS011;46248;58.364;25.582;2024-02-28T10:06:45;4.22;;;2.90;;
59766;SDS011;46248;58.364;25.582;2024-02-28T10:10:08;3.67;;;2.50;;
59766;SDS011;46248;58.364;25.582;2024-02-28T10:13:30;3.72;;;2.40;;
59766;SDS011;46248;58.364;25.582;2024-02-28T10:16:54;3.53;;;2.28;;
59766;SDS011;46248;58.364;25.582;2024-02-28T10:20:16;3.75;;;2.95;;
59766;SDS011;46248;58.364;25.582;2024-02-28T10:23:39;4.63;;;3.05;;
59766;SDS011;46248;58.364;25.582;2024-02-28T10:27:02;6.05;;;2.80;;
59766;SDS011;46248;58.364;25.582;2024-02-28T10:30:24;4.88;;;3.17;;
59766;SDS011;46248;58.364;25.582;2024-02-28T10:33:47;3.72;;;2.80;;
59766;SDS011;46248;58.364;25.582;2024-02-28T10:37:09;4.55;;;2.50;;
59766;SDS011;46248;58.364;25.582;2024-02-28T10:40:32;3.55;;;2.60;;
59766;SDS011;46248;58.364;25.582;2024-02-28T10:43:53;4.40;;;2.97;;
59766;SDS011;46248;58.364;25.582;2024-02-28T10:47:15;5.30;;;4.43;;
59766;SDS011;46248;58.364;25.582;2024-02-28T10:50:39;3.80;;;3.25;;
59766;SDS011;46248;58.364;25.582;2024-02-28T10:58:50;6.43;;;3.80;;
59766;SDS011;46248;58.364;25.582;2024-02-28T11:02:14;5.40;;;3.40;;
59766;SDS011;46248;58.364;25.582;2024-02-28T11:05:36;4.75;;;3.42;;
59766;SDS011;46248;58.364;25.582;2024-02-28T11:09:01;3.47;;;2.72;;
59766;SDS011;46248;58.364;25.582;2024-02-28T11:12:26;5.28;;;2.97;;
59766;SDS011;46248;58.364;25.582;2024-02-28T11:15:49;3.30;;;2.33;;
59766;SDS011;46248;58.364;25.582;2024-02-28T11:19:18;6.57;;;3.53;;
59766;SDS011;46248;58.364;25.582;2024-02-28T11:22:41;6.85;;;3.60;;
59766;SDS011;46248;58.364;25.582;2024-02-28T11:26:05;4.80;;;3.08;;
59766;SDS011;46248;58.364;25.582;2024-02-28T11:29:27;4.50;;;3.05;;
59766;SDS011;46248;58.364;25.582;2024-02-28T11:32:51;3.55;;;3.25;;
59766;SDS011;46248;58.364;25.582;2024-02-28T11:36:17;3.15;;;2.78;;
59766;SDS011;46248;58.364;25.582;2024-02-28T11:39:39;4.68;;;2.70;;
59766;SDS011;46248;58.364;25.582;2024-02-28T11:43:03;5.40;;;3.20;;
59766;SDS011;46248;58.364;25.582;2024-02-28T11:46:25;5.55;;;3.55;;
59766;SDS011;46248;58.364;25.582;2024-02-28T11:49:47;6.25;;;4.47;;
59766;SDS011;46248;58.364;25.582;2024-02-28T11:53:09;8.10;;;5.30;;
59766;SDS011;46248;58.364;25.582;2024-02-28T11:56:31;8.52;;;5.10;;
59766;SDS011;46248;58.364;25.582;2024-02-28T11:59:55;8.07;;;5.57;;
59766;SDS011;46248;58.364;25.582;2024-02-28T12:03:20;8.80;;;4.82;;
59766;SDS011;46248;58.364;25.582;2024-02-28T12:06:43;8.02;;;5.25;;
59766;SDS011;46248;58.364;25.582;2024-02-28T12:10:05;6.50;;;2.92;;
59766;SDS011;46248;58.364;25.582;2024-02-28T12:13:30;6.47;;;3.45;;
59766;SDS011;46248;58.364;25.582;2024-02-28T12:16:53;10.60;;;4.18;;
59766;SDS011;46248;58.364;25.582;2024-02-28T12:20:18;9.43;;;4.03;;
59766;SDS011;46248;58.364;25.582;2024-02-28T12:23:40;9.48;;;4.78;;
59766;SDS011;46248;58.364;25.582;2024-02-28T12:27:02;7.85;;;6.00;;
59766;SDS011;46248;58.364;25.582;2024-02-28T12:30:25;10.93;;;4.68;;
59766;SDS011;46248;58.364;25.582;2024-02-28T12:33:48;8.27;;;3.60;;
59766;SDS011;46248;58.364;25.582;2024-02-28T12:37:10;4.57;;;3.72;;
59766;SDS011;46248;58.364;25.582;2024-02-28T12:40:32;8.60;;;4.95;;
59766;SDS011;46248;58.364;25.582;2024-02-28T12:43:54;8.73;;;5.47;;
59766;SDS011;46248;58.364;25.582;2024-02-28T12:47:16;5.22;;;3.50;;
59766;SDS011;46248;58.364;25.582;2024-02-28T12:50:39;16.63;;;5.05;;
59766;SDS011;46248;58.364;25.582;2024-02-28T12:54:01;7.25;;;3.28;;
59766;SDS011;46248;58.364;25.582;2024-02-28T12:57:23;5.40;;;3.30;;
59766;SDS011;46248;58.364;25.582;2024-02-28T13:00:45;9.20;;;3.50;;
59766;SDS011;46248;58.364;25.582;2024-02-28T13:04:07;5.28;;;3.53;;
59766;SDS011;46248;58.364;25.582;2024-02-28T13:07:30;5.60;;;3.00;;
59766;SDS011;46248;58.364;25.582;2024-02-28T13:10:52;5.03;;;3.67;;
59766;SDS011;46248;58.364;25.582;2024-02-28T13:14:17;7.68;;;3.28;;
59766;SDS011;46248;58.364;25.582;2024-02-28T13:17:38;6.78;;;3.97;;
59766;SDS011;46248;58.364;25.582;2024-02-28T13:21:01;10.73;;;5.25;;
59766;SDS011;46248;58.364;25.582;2024-02-28T13:24:25;5.78;;;3.85;;
59766;SDS011;46248;58.364;25.582;2024-02-28T13:27:47;5.80;;;3.88;;
59766;SDS011;46248;58.364;25.582;2024-02-28T13:31:11;5.40;;;3.28;;
59766;SDS011;46248;58.364;25.582;2024-02-28T13:34:33;6.60;;;4.10;;
59766;SDS011;46248;58.364;25.582;2024-02-28T13:37:55;7.90;;;4.22;;
59766;SDS011;46248;58.364;25.582;2024-02-28T13:41:21;9.73;;;5.60;;
59766;SDS011;46248;58.364;25.582;2024-02-28T13:44:43;7.32;;;5.03;;
59766;SDS011;46248;58.364;25.582;2024-02-28T13:48:05;10.52;;;5.70;;
59766;SDS011;46248;58.364;25.582;2024-02-28T13:51:38;9.07;;;4.72;;
59766;SDS011;46248;58.364;25.582;2024-02-28T13:55:02;10.30;;;5.70;;
59766;SDS011;46248;58.364;25.582;2024-02-28T13:58:26;19.27;;;7.10;;
59766;SDS011;46248;58.364;25.582;2024-02-28T14:01:58;9.73;;;5.72;;
59766;SDS011;46248;58.364;25.582;2024-02-28T14:05:21;12.20;;;6.13;;
59766;SDS011;46248;58.364;25.582;2024-02-28T14:08:43;15.75;;;7.65;;
59766;SDS011;46248;58.364;25.582;2024-02-28T14:12:05;11.15;;;6.50;;
59766;SDS011;46248;58.364;25.582;2024-02-28T14:15:28;5.65;;;3.65;;
59766;SDS011;46248;58.364;25.582;2024-02-28T14:18:51;5.35;;;3.15;;
59766;SDS011;46248;58.364;25.582;2024-02-28T14:22:13;4.93;;;3.30;;
59766;SDS011;46248;58.364;25.582;2024-02-28T14:25:35;6.95;;;4.03;;
59766;SDS011;46248;58.364;25.582;2024-02-28T14:28:56;6.68;;;3.85;;
59766;SDS011;46248;58.364;25.582;2024-02-28T14:32:20;11.48;;;5.50;;
59766;SDS011;46248;58.364;25.582;2024-02-28T14:35:42;18.02;;;8.70;;
59766;SDS011;46248;58.364;25.582;2024-02-28T14:39:04;17.60;;;8.77;;
59766;SDS011;46248;58.364;25.582;2024-02-28T14:42:35;18.98;;;10.98;;
59766;SDS011;46248;58.364;25.582;2024-02-28T14:45:57;21.15;;;10.52;;
59766;SDS011;46248;58.364;25.582;2024-02-28T14:49:20;14.25;;;7.75;;
59766;SDS011;46248;58.364;25.582;2024-02-28T14:52:42;25.15;;;16.98;;
59766;SDS011;46248;58.364;25.582;2024-02-28T14:56:04;37.42;;;17.15;;
59766;SDS011;46248;58.364;25.582;2024-02-28T14:59:27;48.47;;;18.80;;
59766;SDS011;46248;58.364;25.582;2024-02-28T15:02:49;132.85;;;48.95;;
59766;SDS011;46248;58.364;25.582;2024-02-28T15:06:15;84.22;;;30.95;;
59766;SDS011;46248;58.364;25.582;2024-02-28T15:09:37;61.60;;;25.08;;
59766;SDS011;46248;58.364;25.582;2024-02-28T15:13:00;29.73;;;14.57;;
59766;SDS011;46248;58.364;25.582;2024-02-28T15:16:22;30.17;;;16.35;;
59766;SDS011;46248;58.364;25.582;2024-02-28T15:19:44;23.00;;;12.80;;
59766;SDS011;46248;58.364;25.582;2024-02-28T15:23:07;26.10;;;12.93;;
59766;SDS011;46248;58.364;25.582;2024-02-28T15:26:30;21.05;;;10.77;;
59766;SDS011;46248;58.364;25.582;2024-02-28T15:30:05;18.92;;;9.65;;
59766;SDS011;46248;58.364;25.582;2024-02-28T15:33:27;18.23;;;8.55;;
59766;SDS011;46248;58.364;25.582;2024-02-28T15:36:49;21.83;;;8.98;;
59766;SDS011;46248;58.364;25.582;2024-02-28T15:40:13;21.73;;;9.98;;
59766;SDS011;46248;58.364;25.582;2024-02-28T15:43:37;22.15;;;9.95;;
59766;SDS011;46248;58.364;25.582;2024-02-28T15:46:58;27.58;;;13.88;;
59766;SDS011;46248;58.364;25.582;2024-02-28T15:50:20;27.88;;;13.48;;
59766;SDS011;46248;58.364;25.582;2024-02-28T15:53:42;34.53;;;15.98;;
59766;SDS011;46248;58.364;25.582;2024-02-28T15:57:05;35.40;;;16.10;;
59766;SDS011;46248;58.364;25.582;2024-02-28T16:00:29;35.47;;;15.57;;
59766;SDS011;46248;58.364;25.582;2024-02-28T16:03:51;31.13;;;15.10;;
59766;SDS011;46248;58.364;25.582;2024-02-28T16:07:13;33.60;;;15.82;;
59766;SDS011;46248;58.364;25.582;2024-02-28T16:10:36;31.70;;;14.68;;
59766;SDS011;46248;58.364;25.582;2024-02-28T16:14:00;30.27;;;13.63;;
59766;SDS011;46248;58.364;25.582;2024-02-28T16:17:22;29.70;;;13.07;;
59766;SDS011;46248;58.364;25.582;2024-02-28T16:20:46;29.13;;;14.02;;
59766;SDS011;46248;58.364;25.582;2024-02-28T16:24:08;21.63;;;10.48;;
59766;SDS011;46248;58.364;25.582;2024-02-28T16:27:30;23.90;;;11.07;;
59766;SDS011;46248;58.364;25.582;2024-02-28T16:30:53;26.52;;;11.15;;
59766;SDS011;46248;58.364;25.582;2024-02-28T16:34:16;23.05;;;11.98;;
59766;SDS011;46248;58.364;25.582;2024-02-28T16:37:40;25.10;;;11.00;;
59766;SDS011;46248;58.364;25.582;2024-02-28T16:41:02;26.50;;;12.45;;
59766;SDS011;46248;58.364;25.582;2024-02-28T16:44:24;25.80;;;12.82;;
59766;SDS011;46248;58.364;25.582;2024-02-28T16:47:48;24.02;;;11.63;;
59766;SDS011;46248;58.364;25.582;2024-02-28T16:51:10;32.00;;;13.27;;
59766;SDS011;46248;58.364;25.582;2024-02-28T16:54:32;28.25;;;13.43;;
59766;SDS011;46248;58.364;25.582;2024-02-28T16:57:54;31.90;;;13.55;;
59766;SDS011;46248;58.364;25.582;2024-02-28T17:01:16;27.45;;;12.07;;
59766;SDS011;46248;58.364;25.582;2024-02-28T17:04:39;25.08;;;10.55;;
59766;SDS011;46248;58.364;25.582;2024-02-28T17:08:01;18.02;;;8.52;;
59766;SDS011;46248;58.364;25.582;2024-02-28T17:11:23;19.88;;;9.43;;
59766;SDS011;46248;58.364;25.582;2024-02-28T17:14:45;17.88;;;9.02;;
59766;SDS011;46248;58.364;25.582;2024-02-28T17:18:07;21.70;;;9.00;;
59766;SDS011;46248;58.364;25.582;2024-02-28T17:21:30;20.70;;;8.18;;
59766;SDS011;46248;58.364;25.582;2024-02-28T17:24:54;17.45;;;8.60;;
59766;SDS011;46248;58.364;25.582;2024-02-28T17:28:16;13.07;;;6.43;;
59766;SDS011;46248;58.364;25.582;2024-02-28T17:31:38;16.20;;;7.45;;
59766;SDS011;46248;58.364;25.582;2024-02-28T17:35:00;17.00;;;7.82;;
59766;SDS011;46248;58.364;25.582;2024-02-28T17:38:27;18.67;;;8.80;;
59766;SDS011;46248;58.364;25.582;2024-02-28T17:41:48;14.90;;;7.38;;
59766;SDS011;46248;58.364;25.582;2024-02-28T17:45:11;13.13;;;6.85;;
59766;SDS011;46248;58.364;25.582;2024-02-28T17:48:33;13.10;;;6.85;;
59766;SDS011;46248;58.364;25.582;2024-02-28T17:51:56;13.63;;;6.43;;
59766;SDS011;46248;58.364;25.582;2024-02-28T17:55:20;10.93;;;5.82;;
59766;SDS011;46248;58.364;25.582;2024-02-28T17:58:42;11.77;;;5.47;;
59766;SDS011;46248;58.364;25.582;2024-02-28T18:02:04;12.02;;;5.43;;
59766;SDS011;46248;58.364;25.582;2024-02-28T18:05:26;9.82;;;6.40;;
59766;SDS011;46248;58.364;25.582;2024-02-28T18:08:48;8.50;;;4.90;;
59766;SDS011;46248;58.364;25.582;2024-02-28T18:12:12;10.85;;;6.22;;
59766;SDS011;46248;58.364;25.582;2024-02-28T18:15:33;12.48;;;6.55;;
59766;SDS011;46248;58.364;25.582;2024-02-28T18:18:55;12.25;;;6.35;;
59766;SDS011;46248;58.364;25.582;2024-02-28T18:22:17;12.10;;;6.32;;
59766;SDS011;46248;58.364;25.582;2024-02-28T18:25:39;11.93;;;6.07;;
59766;SDS011;46248;58.364;25.582;2024-02-28T18:29:02;12.82;;;7.78;;
59766;SDS011;46248;58.364;25.582;2024-02-28T18:32:23;20.50;;;9.35;;
59766;SDS011;46248;58.364;25.582;2024-02-28T18:35:46;14.18;;;8.18;;
59766;SDS011;46248;58.364;25.582;2024-02-28T18:39:08;15.52;;;8.70;;
59766;SDS011;46248;58.364;25.582;2024-02-28T18:42:30;15.88;;;9.45;;
59766;SDS011;46248;58.364;25.582;2024-02-28T18:45:53;20.33;;;10.50;;
59766;SDS011;46248;58.364;25.582;2024-02-28T18:49:15;16.70;;;10.38;;
59766;SDS011;46248;58.364;25.582;2024-02-28T18:52:37;13.98;;;9.30;;
59766;SDS011;46248;58.364;25.582;2024-02-28T18:55:59;13.35;;;8.15;;
59766;SDS011;46248;58.364;25.582;2024-02-28T18:59:23;14.77;;;8.68;;
59766;SDS011;46248;58.364;25.582;2024-02-28T19:02:47;13.85;;;8.57;;
59766;SDS011;46248;58.364;25.582;2024-02-28T19:06:10;17.42;;;10.35;;
59766;SDS011;46248;58.364;25.582;2024-02-28T19:09:32;15.23;;;7.90;;
59766;SDS011;46248;58.364;25.582;2024-02-28T19:12:54;16.95;;;8.73;;
59766;SDS011;46248;58.364;25.582;2024-02-28T19:16:16;21.23;;;9.68;;
59766;SDS011;46248;58.364;25.582;2024-02-28T19:19:40;26.17;;;12.05;;
59766;SDS011;46248;58.364;25.582;2024-02-28T19:23:01;22.90;;;11.82;;
59766;SDS011;46248;58.364;25.582;2024-02-28T19:26:23;24.33;;;12.23;;
59766;SDS011;46248;58.364;25.582;2024-02-28T19:29:45;28.27;;;12.98;;
59766;SDS011;46248;58.364;25.582;2024-02-28T19:33:07;19.50;;;10.75;;
59766;SDS011;46248;58.364;25.582;2024-02-28T19:36:30;24.30;;;11.05;;
59766;SDS011;46248;58.364;25.582;2024-02-28T19:39:52;30.20;;;12.27;;
59766;SDS011;46248;58.364;25.582;2024-02-28T19:43:20;30.73;;;12.15;;
59766;SDS011;46248;58.364;25.582;2024-02-28T19:46:45;55.08;;;16.30;;
59766;SDS011;46248;58.364;25.582;2024-02-28T19:50:07;41.60;;;11.25;;
59766;SDS011;46248;58.364;25.582;2024-02-28T19:53:31;21.35;;;8.20;;
59766;SDS011;46248;58.364;25.582;2024-02-28T19:56:53;74.72;;;23.33;;
59766;SDS011;46248;58.364;25.582;2024-02-28T20:00:15;38.75;;;14.85;;